Date,TemperatureHighF,TemperatureAvgF,TemperatureLowF,DewpointHighF,DewpointAvgF,DewpointLowF,HumidityHigh,HumidityAvg,HumidityLow,PressureMaxIn,PressureMinIn,WindSpeedMaxMPH,WindSpeedAvgMPH,GustSpeedMaxMPH,PrecipitationSumIn
2013-6-1,88.0,76.7,67.8,68.8,66.6,63.3,95,73,47,30.10,29.98,4,0,4,0.00
2013-6-2,84.7,76.5,68.6,69.9,66.5,63.2,91,72,52,30.02,29.86,6,0,6,0.02
2013-6-3,81.4,73.6,67.4,74.3,70.9,66.4,100,92,68,29.92,29.79,4,0,4,0.04
2013-6-4,77.6,69.9,64.7,67.4,64.2,59.8,100,83,57,30.07,29.89,3,0,3,0.04
2013-6-5,82.2,70.6,60.4,64.6,60.5,55.3,97,73,43,30.11,29.99,3,0,3,0.00
2013-6-6,74.4,70.1,65.6,72.9,66.3,56.7,100,88,65,30.02,29.80,3,0,3,0.82
2013-6-7,75.8,70.8,68.8,75.8,70.8,68.8,100,100,100,29.82,29.43,6,0,6,1.29
2013-6-8,82.4,72.6,66.3,72.3,69.2,66.1,100,90,64,30.05,29.77,5,0,5,1.31
2013-6-9,85.9,74.6,65.3,74.4,69.7,64.4,100,86,61,30.12,30.02,4,0,4,0.06
2013-6-10,79.8,73.8,71.3,78.3,72.7,70.3,100,97,81,30.07,29.86,5,0,5,0.72
2013-6-11,85.3,74.8,68.3,71.5,68.8,63.4,100,83,49,29.91,29.85,9,0,9,0.72
2013-6-12,89.7,75.2,63.5,76.9,69.9,62.3,100,85,60,29.92,29.83,5,0,5,0.00
2013-6-13,92.7,77.6,68.1,76.9,71.4,62.8,99,84,45,29.83,29.55,12,0,12,0.08
2013-6-14,79.8,69.1,60.4,67.5,60.5,54.5,98,77,43,29.97,29.67,5,0,5,0.08
2013-6-15,84.7,69.5,56.7,68.6,61.3,55.3,99,78,44,30.07,29.97,4,0,4,0.00
2013-6-16,86.7,73.3,62.0,71.5,64.7,56.4,93,76,52,30.08,29.96,7,0,7,0.00
2013-6-17,83.8,75.9,70.4,74.5,69.3,65.7,88,80,66,29.99,29.89,3,0,3,0.00
2013-6-18,81.1,74.0,69.6,73.6,70.8,68.6,99,90,72,29.92,29.70,4,0,4,0.40
2013-6-19,78.3,71.2,64.8,69.1,66.9,64.4,100,87,65,30.08,29.83,4,0,4,0.40
2013-6-20,81.4,71.0,62.7,66.4,62.7,57.5,97,77,49,30.21,30.08,3,0,3,0.00
2013-6-21,82.4,69.0,54.8,66.7,59.1,49.9,98,73,40,30.22,30.15,3,0,3,0.00
2013-6-22,80.5,72.7,68.9,71.6,68.8,66.7,97,88,69,30.17,30.07,3,0,3,0.02
2013-6-23,82.0,74.0,66.9,76.7,71.1,66.3,100,91,70,30.17,30.09,4,0,4,0.52
2013-6-24,82.8,75.9,71.3,78.7,73.1,70.3,99,91,77,30.16,30.05,5,0,5,0.17
2013-6-25,84.3,74.9,69.8,79.0,71.9,68.9,99,91,72,30.09,29.95,6,0,6,0.16
2013-6-26,89.3,76.0,69.3,77.0,71.2,67.4,99,87,59,29.99,29.84,7,0,7,0.64
2013-6-27,86.7,76.0,67.9,77.3,72.5,67.9,100,90,66,29.88,29.66,6,0,6,0.64
2013-6-28,89.5,77.8,71.6,75.8,72.6,67.7,99,85,58,29.72,29.53,17,0,17,0.52
2013-6-29,83.4,74.6,69.1,76.1,72.4,69.1,100,94,71,29.69,29.56,2,0,2,0.01
2013-6-30,84.7,76.1,71.3,75.8,72.7,69.0,99,90,71,29.83,29.67,3,0,3,0.22